createdAt,value
2017-02-28T00:00:33.315Z,18.63
2017-02-28T00:01:35.536Z,18.64
2017-02-28T00:02:34.163Z,18.64
2017-02-28T00:03:32.692Z,18.64
2017-02-28T00:04:32.644Z,18.64
2017-02-28T00:05:33.084Z,18.63
2017-02-28T00:06:33.234Z,18.63
2017-02-28T00:07:33.635Z,18.64
2017-02-28T00:08:32.546Z,18.63
2017-02-28T00:09:52.214Z,18.63
2017-02-28T00:10:28.925Z,18.63
2017-02-28T00:11:14.751Z,18.63
2017-02-28T00:12:26.834Z,18.63
2017-02-28T00:13:16.437Z,18.63
2017-02-28T00:14:12.912Z,18.62
2017-02-28T00:15:23.149Z,19.13
2017-02-28T00:16:23.764Z,18.83
2017-02-28T00:17:16.902Z,18.71
2017-02-28T00:18:26.016Z,18.65
2017-02-28T00:19:19.155Z,18.64
2017-02-28T00:20:24.788Z,18.64
2017-02-28T00:21:19.769Z,18.63
2017-02-28T00:22:17.086Z,18.63
2017-02-28T00:23:18.952Z,18.63
2017-02-28T00:24:17.212Z,18.63
2017-02-28T00:25:16.391Z,18.63
2017-02-28T00:26:18.250Z,18.62
2017-02-28T00:27:15.597Z,18.64
2017-02-28T00:28:22.844Z,18.61
2017-02-28T00:29:18.747Z,18.62
2017-02-28T00:30:16.971Z,18.62
2017-02-28T00:31:17.214Z,18.61
2017-02-28T00:32:29.114Z,18.64
2017-02-28T00:33:21.761Z,18.62
2017-02-28T00:34:24.586Z,18.61
2017-02-28T00:35:14.961Z,18.61
2017-02-28T00:36:17.931Z,18.59
2017-02-28T00:37:17.519Z,18.61
2017-02-28T00:38:26.932Z,18.61
2017-02-28T00:39:21.311Z,18.62
2017-02-28T00:40:22.362Z,18.61
2017-02-28T00:41:17.521Z,18.61
2017-02-28T00:42:19.673Z,18.61
2017-02-28T00:43:24.590Z,18.61
2017-02-28T00:44:16.481Z,18.61
2017-02-28T00:45:19.776Z,18.61
2017-02-28T00:46:25.715Z,18.61
2017-02-28T00:47:22.336Z,18.60
2017-02-28T00:48:16.807Z,18.60
2017-02-28T00:49:22.950Z,18.61
2017-02-28T00:50:19.264Z,18.64
2017-02-28T00:51:14.861Z,18.61
2017-02-28T00:52:22.747Z,18.61
2017-02-28T00:53:17.832Z,18.60
2017-02-28T00:54:22.439Z,18.60
2017-02-28T00:55:16.913Z,18.60
2017-02-28T00:56:19.470Z,18.59
2017-02-28T00:57:16.398Z,19.11
2017-02-28T00:58:17.062Z,19.16
2017-02-28T00:59:23.669Z,19.19
2017-02-28T01:00:16.297Z,19.19
2017-02-28T01:01:17.321Z,19.21
2017-02-28T01:02:27.561Z,19.21
2017-02-28T01:03:18.960Z,18.71
2017-02-28T01:04:22.943Z,18.66
2017-02-28T01:05:27.459Z,18.63
2017-02-28T01:06:28.426Z,18.62
2017-02-28T01:07:32.194Z,18.61
2017-02-28T01:08:34.063Z,18.60
2017-02-28T01:09:36.641Z,18.60
2017-02-28T01:10:34.780Z,18.60
2017-02-28T01:11:33.800Z,18.60
2017-02-28T01:12:33.628Z,18.60
2017-02-28T01:13:42.618Z,18.60
2017-02-28T01:14:38.383Z,18.59
2017-02-28T01:15:32.906Z,18.60
2017-02-28T01:16:35.513Z,18.59
2017-02-28T01:17:33.150Z,18.60
2017-02-28T01:18:34.153Z,18.59
2017-02-28T01:19:32.313Z,18.59
2017-02-28T01:20:50.475Z,18.61
2017-02-28T01:21:38.831Z,18.59
2017-02-28T01:22:42.152Z,18.59
2017-02-28T01:23:46.186Z,18.58
2017-02-28T01:24:35.044Z,18.58
2017-02-28T01:25:39.384Z,18.60
2017-02-28T01:26:33.513Z,18.60
2017-02-28T01:27:34.480Z,18.59
2017-02-28T01:28:37.758Z,18.58
2017-02-28T01:29:39.332Z,18.59
2017-02-28T01:30:34.854Z,18.58
2017-02-28T01:31:33.980Z,18.58
2017-02-28T01:32:33.299Z,18.59
2017-02-28T01:33:33.962Z,19.08
2017-02-28T01:34:42.803Z,19.15
2017-02-28T01:35:33.822Z,19.16
2017-02-28T01:36:34.960Z,18.83
2017-02-28T01:37:42.441Z,18.66
2017-02-28T01:38:33.464Z,18.64
2017-02-28T01:39:36.354Z,18.61
2017-02-28T01:40:32.774Z,18.60
2017-02-28T01:41:33.894Z,18.59
2017-02-28T01:42:29.080Z,18.59
2017-02-28T01:43:33.457Z,18.59
2017-02-28T01:44:25.932Z,18.59
2017-02-28T01:45:27.166Z,18.58
2017-02-28T01:46:30.643Z,18.58
2017-02-28T01:47:36.685Z,18.58
2017-02-28T01:48:18.662Z,18.59
2017-02-28T01:49:20.106Z,18.58
2017-02-28T01:50:22.658Z,18.58
2017-02-28T01:51:30.850Z,18.59
2017-02-28T01:52:26.394Z,18.58
2017-02-28T01:53:35.047Z,18.57
2017-02-28T01:54:32.701Z,18.58
2017-02-28T01:55:37.216Z,18.59
2017-02-28T01:56:33.659Z,18.57
2017-02-28T01:57:42.489Z,18.60
2017-02-28T01:58:48.118Z,18.57
2017-02-28T01:59:36.946Z,18.57
2017-02-28T02:00:41.833Z,18.61
2017-02-28T02:01:33.756Z,18.59
2017-02-28T02:02:35.179Z,18.57
2017-02-28T02:03:34.789Z,18.57
2017-02-28T02:04:31.657Z,18.57
2017-02-28T02:05:50.842Z,18.57
2017-02-28T02:06:35.549Z,18.56
2017-02-28T02:07:37.561Z,18.56
2017-02-28T02:08:31.568Z,18.57
2017-02-28T02:09:34.699Z,18.57
2017-02-28T02:10:27.086Z,18.56
2017-02-28T02:11:28.370Z,18.56
2017-02-28T02:12:34.436Z,18.57
2017-02-28T02:13:21.068Z,18.56
2017-02-28T02:14:30.172Z,18.56
2017-02-28T02:15:36.485Z,18.56
2017-02-28T02:16:28.435Z,18.56
2017-02-28T02:17:26.942Z,18.56
2017-02-28T02:18:28.243Z,18.56
2017-02-28T02:19:32.607Z,18.55
2017-02-28T02:20:27.576Z,18.57
2017-02-28T02:21:25.732Z,18.56
2017-02-28T02:22:23.071Z,18.56
2017-02-28T02:23:25.569Z,18.56
2017-02-28T02:24:15.390Z,18.56
2017-02-28T02:25:22.285Z,18.55
2017-02-28T02:26:20.069Z,18.56
2017-02-28T02:27:27.987Z,18.55
2017-02-28T02:28:23.266Z,18.55
2017-02-28T02:29:17.032Z,18.55
2017-02-28T02:30:29.069Z,18.55
2017-02-28T02:31:30.445Z,18.56
2017-02-28T02:32:32.108Z,18.56
2017-02-28T02:33:28.696Z,18.55
2017-02-28T02:34:32.770Z,18.55
2017-02-28T02:35:37.319Z,18.56
2017-02-28T02:36:38.042Z,18.55
2017-02-28T02:37:36.440Z,18.55
2017-02-28T02:38:43.946Z,18.55
2017-02-28T02:39:38.763Z,18.55
2017-02-28T02:40:37.704Z,18.55
2017-02-28T02:41:34.363Z,18.55
2017-02-28T02:42:35.719Z,18.56
2017-02-28T02:43:48.270Z,18.56
2017-02-28T02:44:40.246Z,18.55
2017-02-28T02:45:38.500Z,18.55
2017-02-28T02:46:34.013Z,18.55
2017-02-28T02:47:43.739Z,18.55
2017-02-28T02:48:37.350Z,18.55
2017-02-28T02:49:37.790Z,18.55
2017-02-28T02:50:37.868Z,18.56
2017-02-28T02:51:43.146Z,18.66
2017-02-28T02:52:34.455Z,18.60
2017-02-28T02:53:35.779Z,18.58
2017-02-28T02:54:36.628Z,18.56
2017-02-28T02:55:38.030Z,18.56
2017-02-28T02:56:32.747Z,18.56
2017-02-28T02:57:33.029Z,18.55
2017-02-28T02:58:30.859Z,18.55
2017-02-28T02:59:34.810Z,18.55
2017-02-28T03:00:32.272Z,18.55
2017-02-28T03:01:34.239Z,18.55
2017-02-28T03:02:28.096Z,18.55
2017-02-28T03:03:32.190Z,18.55
2017-02-28T03:04:29.331Z,18.55
2017-02-28T03:05:36.412Z,18.55
2017-02-28T03:06:33.738Z,18.55
2017-02-28T03:07:42.082Z,18.55
2017-02-28T03:08:38.401Z,18.59
2017-02-28T03:09:39.517Z,18.55
2017-02-28T03:10:43.939Z,18.55
2017-02-28T03:11:37.787Z,18.55
2017-02-28T03:12:39.362Z,18.54
2017-02-28T03:13:54.927Z,18.54
2017-02-28T03:14:37.323Z,18.54
2017-02-28T03:15:37.198Z,18.54
2017-02-28T03:16:36.335Z,18.55
2017-02-28T03:17:34.288Z,18.54
2017-02-28T03:18:30.856Z,18.54
2017-02-28T03:19:35.361Z,18.54
2017-02-28T03:20:48.192Z,18.54
2017-02-28T03:21:38.764Z,18.55
2017-02-28T03:22:36.589Z,18.54
2017-02-28T03:23:33.648Z,18.54
2017-02-28T03:24:42.461Z,18.54
2017-02-28T03:25:33.881Z,18.55
2017-02-28T03:26:37.142Z,18.54
2017-02-28T03:27:48.783Z,18.54
2017-02-28T03:28:39.229Z,18.54
2017-02-28T03:29:41.858Z,18.54
2017-02-28T03:30:38.896Z,18.54
2017-02-28T03:31:37.980Z,18.54
2017-02-28T03:32:38.625Z,18.55
2017-02-28T03:33:33.744Z,18.54
2017-02-28T03:34:33.232Z,18.54
2017-02-28T03:35:37.875Z,18.54
2017-02-28T03:36:37.805Z,18.54
2017-02-28T03:37:33.911Z,18.55
2017-02-28T03:38:38.157Z,18.54
2017-02-28T03:39:48.898Z,18.54
2017-02-28T03:40:33.760Z,18.54
2017-02-28T03:41:34.138Z,18.55
2017-02-28T03:42:33.200Z,18.54
2017-02-28T03:43:32.535Z,18.53
2017-02-28T03:44:31.253Z,18.54
2017-02-28T03:45:27.392Z,18.54
2017-02-28T03:46:32.881Z,18.56
2017-02-28T03:47:28.358Z,18.56
2017-02-28T03:48:27.859Z,18.53
2017-02-28T03:49:26.780Z,18.53
2017-02-28T03:50:38.501Z,18.53
2017-02-28T03:51:33.158Z,18.53
2017-02-28T03:52:36.943Z,18.54
2017-02-28T03:53:39.423Z,18.53
2017-02-28T03:54:39.431Z,18.53
2017-02-28T03:55:32.389Z,18.52
2017-02-28T03:56:22.832Z,18.53
2017-02-28T03:57:32.389Z,18.53
2017-02-28T03:58:38.617Z,18.53
2017-02-28T03:59:36.983Z,18.53
2017-02-28T04:00:30.182Z,18.53
2017-02-28T04:01:37.839Z,18.53
2017-02-28T04:02:34.801Z,18.53
2017-02-28T04:03:36.171Z,18.53
2017-02-28T04:04:42.220Z,18.52
2017-02-28T04:05:38.399Z,18.52
2017-02-28T04:06:35.463Z,18.52
2017-02-28T04:07:33.360Z,18.52
2017-02-28T04:08:50.722Z,18.53
2017-02-28T04:09:32.020Z,18.53
2017-02-28T04:10:34.396Z,18.52
2017-02-28T04:11:35.202Z,18.53
2017-02-28T04:12:36.274Z,18.53
2017-02-28T04:13:38.341Z,18.52
2017-02-28T04:14:40.897Z,18.52
2017-02-28T04:15:31.973Z,18.51
2017-02-28T04:16:28.431Z,18.52
2017-02-28T04:17:32.679Z,18.51
2017-02-28T04:18:33.760Z,19.03
2017-02-28T04:19:16.639Z,19.08
2017-02-28T04:20:16.423Z,19.11
2017-02-28T04:21:26.164Z,19.12
2017-02-28T04:22:26.390Z,19.13
2017-02-28T04:23:32.720Z,19.14
2017-02-28T04:24:20.534Z,19.14
2017-02-28T04:25:17.255Z,18.63
2017-02-28T04:26:26.165Z,18.58
2017-02-28T04:27:21.148Z,18.56
2017-02-28T04:28:32.452Z,18.56
2017-02-28T04:29:40.080Z,18.54
2017-02-28T04:30:37.260Z,18.54
2017-02-28T04:31:27.295Z,18.53
2017-02-28T04:32:39.033Z,18.53
2017-02-28T04:33:39.669Z,18.53
2017-02-28T04:34:29.454Z,18.52
2017-02-28T04:35:32.354Z,18.52
2017-02-28T04:36:26.270Z,18.53
2017-02-28T04:37:20.536Z,18.53
2017-02-28T04:38:16.440Z,18.52
2017-02-28T04:39:15.521Z,18.52
2017-02-28T04:40:21.279Z,18.52
2017-02-28T04:41:14.803Z,18.52
2017-02-28T04:42:15.008Z,18.50
2017-02-28T04:43:19.821Z,18.52
2017-02-28T04:44:19.926Z,18.52
2017-02-28T04:45:19.207Z,18.52
2017-02-28T04:46:18.081Z,18.52
2017-02-28T04:47:15.828Z,18.52
2017-02-28T04:48:17.363Z,18.51
2017-02-28T04:49:22.382Z,18.51
2017-02-28T04:50:22.794Z,18.54
2017-02-28T04:51:14.907Z,18.51
2017-02-28T04:52:16.651Z,18.52
2017-02-28T04:53:25.644Z,19.02
2017-02-28T04:54:25.751Z,19.07
2017-02-28T04:55:27.740Z,19.11
2017-02-28T04:56:27.812Z,19.12
2017-02-28T04:57:30.269Z,19.12
2017-02-28T04:58:24.325Z,18.77
2017-02-28T04:59:18.289Z,18.62
2017-02-28T05:00:26.024Z,18.58
2017-02-28T05:01:24.740Z,19.06
2017-02-28T05:02:27.983Z,19.10
2017-02-28T05:03:21.874Z,19.10
2017-02-28T05:04:16.139Z,18.61
2017-02-28T05:05:15.116Z,18.57
2017-02-28T05:06:14.096Z,18.54
2017-02-28T05:07:14.810Z,18.55
2017-02-28T05:08:22.695Z,18.52
2017-02-28T05:09:28.775Z,18.51
2017-02-28T05:10:26.111Z,18.51
2017-02-28T05:11:18.398Z,18.51
2017-02-28T05:12:31.272Z,18.51
2017-02-28T05:13:24.846Z,18.51
2017-02-28T05:14:26.150Z,18.50
2017-02-28T05:15:18.805Z,18.50
2017-02-28T05:16:16.794Z,18.50
2017-02-28T05:17:15.016Z,18.50
2017-02-28T05:18:16.066Z,18.54
2017-02-28T05:19:23.618Z,18.49
2017-02-28T05:20:33.778Z,19.00
2017-02-28T05:21:21.980Z,19.05
2017-02-28T05:22:21.776Z,19.07
2017-02-28T05:23:16.041Z,19.10
2017-02-28T05:24:16.656Z,19.11
2017-02-28T05:25:23.241Z,19.10
2017-02-28T05:26:15.802Z,19.09
2017-02-28T05:27:19.422Z,19.11
2017-02-28T05:28:22.888Z,19.11
2017-02-28T05:29:37.856Z,19.11
2017-02-28T05:30:27.857Z,19.11
2017-02-28T05:31:22.519Z,18.60
2017-02-28T05:32:19.832Z,18.55
2017-02-28T05:33:17.170Z,18.52
2017-02-28T05:34:20.021Z,18.51
2017-02-28T05:35:23.928Z,18.50
2017-02-28T05:36:24.614Z,18.55
2017-02-28T05:37:24.953Z,18.50
2017-02-28T05:38:22.601Z,18.49
2017-02-28T05:39:13.796Z,18.49
2017-02-28T05:40:18.809Z,18.49
2017-02-28T05:41:18.913Z,18.55
2017-02-28T05:42:21.269Z,18.49
2017-02-28T05:43:14.715Z,18.49
2017-02-28T05:44:23.016Z,18.48
2017-02-28T05:45:33.620Z,18.48
2017-02-28T05:46:23.523Z,18.48
2017-02-28T05:47:18.198Z,18.55
2017-02-28T05:48:19.112Z,18.48
2017-02-28T05:49:26.539Z,18.48
2017-02-28T05:50:16.763Z,18.51
2017-02-28T05:51:20.336Z,18.48
2017-02-28T05:52:18.403Z,18.47
2017-02-28T05:53:20.758Z,18.99
2017-02-28T05:54:15.639Z,18.53
2017-02-28T05:55:17.585Z,18.51
2017-02-28T05:56:20.657Z,18.49
2017-02-28T05:57:15.742Z,18.48
2017-02-28T05:58:14.923Z,18.48
2017-02-28T05:59:15.538Z,18.51
2017-02-28T06:00:19.431Z,18.48
2017-02-28T06:01:18.508Z,18.48
2017-02-28T06:02:17.688Z,18.47
2017-02-28T06:03:13.186Z,18.47
2017-02-28T06:04:21.375Z,18.98
2017-02-28T06:05:14.822Z,19.03
2017-02-28T06:06:20.766Z,19.04
2017-02-28T06:07:20.351Z,19.06
2017-02-28T06:08:27.101Z,19.07
2017-02-28T06:09:18.509Z,19.08
2017-02-28T06:10:18.209Z,19.08
2017-02-28T06:11:19.943Z,18.59
2017-02-28T06:12:18.920Z,18.54
2017-02-28T06:13:19.739Z,18.50
2017-02-28T06:14:28.169Z,18.49
2017-02-28T06:15:26.805Z,18.48
2017-02-28T06:16:25.476Z,18.48
2017-02-28T06:17:26.486Z,18.47
2017-02-28T06:18:31.441Z,18.47
2017-02-28T06:19:16.801Z,18.47
2017-02-28T06:20:24.160Z,18.51
2017-02-28T06:21:34.361Z,18.47
2017-02-28T06:22:33.191Z,18.47
2017-02-28T06:23:46.999Z,18.47
2017-02-28T06:24:19.230Z,18.47
2017-02-28T06:25:28.186Z,18.46
2017-02-28T06:26:21.380Z,18.47
2017-02-28T06:27:23.669Z,18.47
2017-02-28T06:28:18.003Z,18.47
2017-02-28T06:29:19.708Z,18.47
2017-02-28T06:30:14.721Z,18.47
2017-02-28T06:31:17.175Z,18.47
2017-02-28T06:32:16.197Z,18.99
2017-02-28T06:33:22.405Z,19.04
2017-02-28T06:34:16.778Z,19.05
2017-02-28T06:35:24.928Z,18.72
2017-02-28T06:36:21.390Z,18.57
2017-02-28T06:37:14.636Z,18.53
2017-02-28T06:38:20.359Z,18.51
2017-02-28T06:39:23.881Z,18.49
2017-02-28T06:40:23.655Z,18.49
2017-02-28T06:41:16.280Z,18.47
2017-02-28T06:42:17.326Z,18.98
2017-02-28T06:43:24.078Z,19.02
2017-02-28T06:44:19.787Z,19.05
2017-02-28T06:45:16.438Z,19.07
2017-02-28T06:46:18.086Z,19.07
2017-02-28T06:47:22.664Z,19.08
2017-02-28T06:48:20.985Z,19.08
2017-02-28T06:49:16.912Z,19.08
2017-02-28T06:50:19.644Z,18.62
2017-02-28T06:51:23.909Z,18.55
2017-02-28T06:52:24.662Z,18.53
2017-02-28T06:53:19.134Z,18.52
2017-02-28T06:54:25.687Z,18.53
2017-02-28T06:55:21.875Z,18.53
2017-02-28T06:56:29.169Z,18.53
2017-02-28T06:57:16.966Z,18.53
2017-02-28T06:58:18.006Z,18.54
2017-02-28T06:59:18.780Z,18.55
2017-02-28T07:00:16.783Z,18.54
2017-02-28T07:01:20.340Z,18.54
2017-02-28T07:02:16.220Z,18.52
2017-02-28T07:03:18.317Z,19.03
2017-02-28T07:04:19.135Z,19.05
2017-02-28T07:05:17.702Z,19.07
2017-02-28T07:06:21.772Z,19.07
2017-02-28T07:07:16.371Z,18.55
2017-02-28T07:08:19.832Z,18.50
2017-02-28T07:09:17.841Z,18.46
2017-02-28T07:10:20.498Z,18.44
2017-02-28T07:11:30.255Z,18.42
2017-02-28T07:12:31.510Z,18.42
2017-02-28T07:13:26.279Z,18.40
2017-02-28T07:14:20.366Z,18.40
2017-02-28T07:15:18.871Z,18.41
2017-02-28T07:16:21.186Z,18.89
2017-02-28T07:17:16.168Z,18.95
2017-02-28T07:18:35.520Z,18.95
2017-02-28T07:19:16.810Z,18.97
2017-02-28T07:20:18.933Z,18.95
2017-02-28T07:21:16.169Z,18.94
2017-02-28T07:22:20.368Z,18.93
2017-02-28T07:23:36.773Z,18.92
2017-02-28T07:24:39.894Z,18.89
2017-02-28T07:25:54.761Z,18.89
2017-02-28T07:26:43.385Z,18.50
2017-02-28T07:27:33.408Z,18.35
2017-02-28T07:28:40.991Z,18.29
2017-02-28T07:29:33.012Z,18.26
2017-02-28T07:30:26.432Z,18.25
2017-02-28T07:31:42.574Z,18.23
2017-02-28T07:32:39.842Z,18.22
2017-02-28T07:33:36.964Z,18.22
2017-02-28T07:34:35.934Z,18.20
2017-02-28T07:35:39.306Z,18.19
2017-02-28T07:36:42.199Z,18.19
2017-02-28T07:37:27.894Z,18.18
2017-02-28T07:38:25.756Z,18.18
2017-02-28T07:39:22.725Z,18.20
2017-02-28T07:40:21.599Z,18.22
2017-02-28T07:41:30.675Z,18.23
2017-02-28T07:42:20.885Z,18.24
2017-02-28T07:43:28.706Z,18.24
2017-02-28T07:44:26.002Z,18.24
2017-02-28T07:45:41.364Z,18.25
2017-02-28T07:46:34.527Z,18.25
2017-02-28T07:47:33.302Z,18.23
2017-02-28T07:48:32.155Z,18.22
2017-02-28T07:49:37.184Z,18.21
2017-02-28T07:50:39.463Z,18.20
2017-02-28T07:51:32.406Z,18.20
2017-02-28T07:52:46.920Z,18.20
2017-02-28T07:53:42.399Z,18.22
2017-02-28T07:54:28.777Z,18.22
2017-02-28T07:56:34.679Z,18.26
2017-02-28T07:57:09.829Z,18.24
2017-02-28T07:57:46.888Z,18.27
2017-02-28T07:58:53.015Z,18.81
2017-02-28T07:59:36.885Z,18.87
2017-02-28T08:00:39.283Z,18.90
2017-02-28T08:01:34.257Z,18.58
2017-02-28T08:02:32.789Z,18.44
2017-02-28T08:03:34.853Z,18.41
2017-02-28T08:04:37.168Z,18.44
2017-02-28T08:05:35.222Z,18.41
2017-02-28T08:06:38.909Z,18.42
2017-02-28T08:07:28.839Z,18.42
2017-02-28T08:08:32.816Z,18.43
2017-02-28T08:09:42.848Z,18.44
2017-02-28T08:10:27.818Z,18.46
2017-02-28T08:11:44.075Z,18.47
2017-02-28T08:12:34.228Z,18.48
2017-02-28T08:13:34.756Z,18.48
2017-02-28T08:14:26.450Z,18.49
2017-02-28T08:15:37.075Z,18.48
2017-02-28T08:16:37.045Z,18.48
2017-02-28T08:17:34.715Z,18.48
2017-02-28T08:18:36.601Z,18.48
2017-02-28T08:19:29.187Z,18.48
2017-02-28T08:20:43.122Z,18.48
2017-02-28T08:21:44.198Z,18.53
2017-02-28T08:22:40.402Z,18.48
2017-02-28T08:23:38.543Z,18.47
2017-02-28T08:24:33.715Z,18.47
2017-02-28T08:25:34.078Z,18.47
2017-02-28T08:26:36.492Z,18.47
2017-02-28T08:27:35.368Z,18.47
2017-02-28T08:28:32.462Z,18.46
2017-02-28T08:29:36.994Z,18.46
2017-02-28T08:30:30.287Z,18.44
2017-02-28T08:31:38.831Z,18.45
2017-02-28T08:32:48.513Z,18.44
2017-02-28T08:33:43.623Z,18.49
2017-02-28T08:34:39.429Z,18.46
2017-02-28T08:35:48.692Z,18.46
2017-02-28T08:36:35.497Z,18.47
2017-02-28T08:37:39.551Z,18.47
2017-02-28T08:38:33.569Z,18.52
2017-02-28T08:39:50.260Z,18.49
2017-02-28T08:40:44.850Z,18.48
2017-02-28T08:41:39.543Z,18.48
2017-02-28T08:42:44.483Z,18.49
2017-02-28T08:43:33.890Z,18.49
2017-02-28T08:44:38.718Z,18.49
2017-02-28T08:45:31.410Z,18.49
2017-02-28T08:46:40.647Z,18.49
2017-02-28T08:47:51.789Z,18.49
2017-02-28T08:48:51.338Z,18.49
2017-02-28T08:49:39.339Z,18.49
2017-02-28T08:50:43.868Z,18.49
2017-02-28T08:51:39.097Z,18.50
2017-02-28T08:52:41.880Z,18.50
2017-02-28T08:53:34.393Z,18.50
2017-02-28T08:54:32.060Z,18.49
2017-02-28T08:55:44.240Z,18.52
2017-02-28T08:56:46.713Z,18.50
2017-02-28T08:57:50.844Z,18.50
2017-02-28T08:58:45.331Z,18.50
2017-02-28T08:59:32.537Z,18.50
2017-02-28T09:00:46.678Z,18.50
2017-02-28T09:01:42.724Z,18.50
2017-02-28T09:02:37.910Z,18.50
2017-02-28T09:03:36.117Z,18.51
2017-02-28T09:04:37.833Z,18.50
2017-02-28T09:05:34.558Z,18.51
2017-02-28T09:06:39.313Z,18.50
2017-02-28T09:07:34.412Z,18.57
2017-02-28T09:08:32.726Z,18.51
2017-02-28T09:09:45.124Z,18.50
2017-02-28T09:10:34.877Z,18.50
2017-02-28T09:11:35.385Z,19.02
2017-02-28T09:12:45.187Z,19.06
2017-02-28T09:13:36.156Z,19.08
2017-02-28T09:14:52.161Z,19.09
2017-02-28T09:15:46.256Z,19.11
2017-02-28T09:16:39.325Z,18.76
2017-02-28T09:17:35.213Z,18.60
2017-02-28T09:18:39.902Z,18.56
2017-02-28T09:19:37.890Z,18.55
2017-02-28T09:20:39.392Z,19.05
2017-02-28T09:21:46.123Z,19.08
2017-02-28T09:22:37.922Z,18.77
2017-02-28T09:23:35.351Z,18.60
2017-02-28T09:24:44.119Z,18.57
2017-02-28T09:25:40.570Z,18.54
2017-02-28T09:26:36.420Z,18.54
2017-02-28T09:27:38.033Z,18.52
2017-02-28T09:28:43.979Z,18.52
2017-02-28T09:29:44.747Z,18.52
2017-02-28T09:30:44.098Z,18.52
2017-02-28T09:31:38.769Z,18.52
2017-02-28T09:32:40.484Z,18.52
2017-02-28T09:33:35.979Z,18.52
2017-02-28T09:34:45.925Z,18.52
2017-02-28T09:35:35.817Z,18.51
2017-02-28T09:36:45.212Z,18.52
2017-02-28T09:37:36.038Z,18.52
2017-02-28T09:38:37.911Z,18.52
2017-02-28T09:39:34.015Z,18.58
2017-02-28T09:40:42.420Z,18.52
2017-02-28T09:41:45.050Z,18.51
2017-02-28T09:42:46.556Z,18.51
2017-02-28T09:43:31.913Z,18.52
2017-02-28T09:44:42.016Z,18.51
2017-02-28T09:45:44.751Z,18.51
2017-02-28T09:46:37.893Z,18.51
2017-02-28T09:47:38.648Z,18.51
2017-02-28T09:48:35.705Z,18.51
2017-02-28T09:49:31.892Z,18.52
2017-02-28T09:50:47.622Z,18.51
2017-02-28T09:51:38.422Z,18.50
2017-02-28T09:52:32.034Z,18.51
2017-02-28T09:53:37.765Z,18.52
2017-02-28T09:54:36.930Z,18.51
2017-02-28T09:55:37.798Z,18.51
2017-02-28T09:56:41.484Z,18.51
2017-02-28T09:57:44.599Z,18.52
2017-02-28T09:58:29.335Z,18.51
2017-02-28T09:59:41.431Z,18.51
2017-02-28T10:00:34.960Z,18.51
2017-02-28T10:01:41.759Z,18.51
2017-02-28T10:02:48.160Z,18.51
2017-02-28T10:03:33.685Z,18.51
2017-02-28T10:04:33.746Z,18.59
2017-02-28T10:05:39.895Z,19.03
2017-02-28T10:06:31.935Z,19.07
2017-02-28T10:07:46.688Z,19.08
2017-02-28T10:08:40.274Z,19.10
2017-02-28T10:09:38.986Z,19.11
2017-02-28T10:10:26.940Z,19.12
2017-02-28T10:11:47.749Z,19.13
2017-02-28T10:12:42.594Z,19.13
2017-02-28T10:13:37.619Z,19.14
2017-02-28T10:14:39.536Z,19.13
2017-02-28T10:15:38.435Z,19.14
2017-02-28T10:16:31.928Z,19.13
2017-02-28T10:17:48.586Z,19.14
2017-02-28T10:18:46.685Z,19.14
2017-02-28T10:19:33.649Z,18.64
2017-02-28T10:20:40.560Z,18.58
2017-02-28T10:21:39.803Z,18.59
2017-02-28T10:22:45.428Z,18.54
2017-02-28T10:23:47.916Z,18.54
2017-02-28T10:24:51.035Z,18.53
2017-02-28T10:25:48.064Z,18.52
2017-02-28T10:26:36.938Z,18.52
2017-02-28T10:27:33.716Z,18.52
2017-02-28T10:28:38.833Z,18.51
2017-02-28T10:29:38.525Z,18.51
2017-02-28T10:30:26.527Z,18.55
2017-02-28T10:31:26.826Z,19.03
2017-02-28T10:32:39.686Z,19.08
2017-02-28T10:33:46.285Z,19.10
2017-02-28T10:34:42.125Z,19.10
2017-02-28T10:35:43.796Z,19.13
2017-02-28T10:36:33.634Z,18.79
2017-02-28T10:37:31.956Z,18.61
2017-02-28T10:38:32.129Z,18.57
2017-02-28T10:39:33.776Z,18.61
2017-02-28T10:40:51.710Z,18.53
2017-02-28T10:41:36.910Z,18.53
2017-02-28T10:42:32.132Z,18.52
2017-02-28T10:43:40.520Z,18.53
2017-02-28T10:44:34.247Z,18.52
2017-02-28T10:45:40.618Z,18.52
2017-02-28T10:46:44.947Z,18.52
2017-02-28T10:47:52.311Z,18.51
2017-02-28T10:48:44.839Z,18.51
2017-02-28T10:49:24.607Z,18.51
2017-02-28T10:50:38.859Z,18.51
2017-02-28T10:51:31.299Z,18.51
2017-02-28T10:52:34.298Z,18.51
2017-02-28T10:53:42.194Z,18.51
2017-02-28T10:54:46.792Z,18.51
2017-02-28T10:55:46.281Z,18.51
2017-02-28T10:56:41.652Z,18.51
2017-02-28T10:57:34.203Z,18.50
2017-02-28T10:58:39.402Z,18.51
2017-02-28T10:59:37.763Z,18.50
2017-02-28T11:00:32.693Z,18.51
2017-02-28T11:01:37.463Z,18.50
2017-02-28T11:02:46.132Z,18.50
2017-02-28T11:03:32.126Z,18.50
2017-02-28T11:04:39.468Z,18.51
2017-02-28T11:05:36.122Z,18.51
2017-02-28T11:06:46.482Z,18.50
2017-02-28T11:07:37.554Z,18.50
2017-02-28T11:08:39.587Z,18.51
2017-02-28T11:09:50.850Z,18.50
2017-02-28T11:10:41.823Z,18.51
2017-02-28T11:11:41.192Z,18.51
2017-02-28T11:12:37.225Z,18.50
2017-02-28T11:13:36.873Z,18.50
2017-02-28T11:14:40.372Z,18.51
2017-02-28T11:15:43.323Z,18.54
2017-02-28T11:16:38.839Z,18.50
2017-02-28T11:17:34.974Z,18.51
2017-02-28T11:18:46.290Z,18.51
2017-02-28T11:19:32.640Z,18.51
2017-02-28T11:20:37.164Z,18.50
2017-02-28T11:21:43.103Z,18.50
2017-02-28T11:22:45.126Z,18.51
2017-02-28T11:23:48.681Z,18.51
2017-02-28T11:24:28.178Z,18.50
2017-02-28T11:25:51.745Z,18.50
2017-02-28T11:26:28.229Z,18.50
2017-02-28T11:27:48.007Z,18.50
2017-02-28T11:28:38.926Z,18.50
2017-02-28T11:29:46.586Z,18.50
2017-02-28T11:30:39.959Z,18.50
2017-02-28T11:31:38.836Z,18.50
2017-02-28T11:32:39.667Z,18.50
2017-02-28T11:33:45.061Z,18.49
2017-02-28T11:34:33.689Z,18.49
2017-02-28T11:35:33.657Z,18.49
2017-02-28T11:36:34.159Z,18.49
2017-02-28T11:37:44.565Z,18.50
2017-02-28T11:38:33.563Z,18.54
2017-02-28T11:39:33.913Z,18.50
2017-02-28T11:40:36.922Z,18.50
2017-02-28T11:41:46.417Z,18.50
2017-02-28T11:42:41.165Z,18.50
2017-02-28T11:43:39.222Z,18.49
2017-02-28T11:44:34.008Z,18.50
2017-02-28T11:45:37.765Z,18.50
2017-02-28T11:46:39.097Z,18.51
2017-02-28T11:47:43.394Z,18.50
2017-02-28T11:48:29.181Z,19.02
2017-02-28T11:49:45.627Z,19.05
2017-02-28T11:51:41.186Z,19.10
2017-02-28T11:51:51.545Z,19.11
2017-02-28T11:52:45.799Z,19.11
2017-02-28T11:53:48.848Z,19.11
2017-02-28T11:54:45.538Z,19.12
2017-02-28T11:55:39.157Z,19.13
2017-02-28T11:56:39.951Z,19.12
2017-02-28T11:57:39.250Z,18.74
2017-02-28T11:58:42.363Z,18.61
2017-02-28T11:59:41.660Z,18.57
2017-02-28T12:00:41.068Z,18.54
2017-02-28T12:01:36.544Z,18.53
2017-02-28T12:02:43.890Z,18.52
2017-02-28T12:03:41.877Z,18.51
2017-02-28T12:04:48.687Z,18.51
2017-02-28T12:05:33.153Z,18.51
2017-02-28T12:06:43.185Z,18.51
2017-02-28T12:07:46.029Z,18.50
2017-02-28T12:08:34.742Z,18.50
2017-02-28T12:09:42.917Z,18.50
2017-02-28T12:10:49.835Z,18.50
2017-02-28T12:11:37.145Z,18.50
2017-02-28T12:12:42.796Z,18.49
2017-02-28T12:13:43.877Z,18.52
2017-02-28T12:14:50.963Z,18.50
2017-02-28T12:15:53.210Z,18.50
2017-02-28T12:16:46.709Z,18.50
2017-02-28T12:17:50.990Z,18.50
2017-02-28T12:18:47.223Z,18.49
2017-02-28T12:19:37.192Z,18.49
2017-02-28T12:20:55.144Z,18.49
2017-02-28T12:21:42.311Z,18.50
2017-02-28T12:22:51.260Z,18.49
2017-02-28T12:23:45.971Z,18.49
2017-02-28T12:24:49.904Z,18.54
2017-02-28T12:25:52.636Z,18.50
2017-02-28T12:26:47.693Z,18.49
2017-02-28T12:27:55.773Z,18.49
2017-02-28T12:28:43.856Z,18.50
2017-02-28T12:29:49.065Z,18.50
2017-02-28T12:30:47.618Z,18.49
2017-02-28T12:31:46.323Z,18.56
2017-02-28T12:32:56.647Z,18.49
2017-02-28T12:33:44.540Z,18.49
2017-02-28T12:34:41.880Z,18.50
2017-02-28T12:35:36.977Z,18.49
2017-02-28T12:36:56.829Z,18.49
2017-02-28T12:37:38.854Z,18.49
2017-02-28T12:38:36.200Z,18.49
2017-02-28T12:39:34.195Z,18.49
2017-02-28T12:40:38.206Z,18.49
2017-02-28T12:41:49.776Z,18.50
2017-02-28T12:42:38.829Z,18.48
2017-02-28T12:43:44.712Z,18.48
2017-02-28T12:44:32.903Z,18.49
2017-02-28T12:45:40.461Z,18.49
2017-02-28T12:46:41.937Z,18.49
2017-02-28T12:47:42.409Z,18.49
2017-02-28T12:48:36.103Z,18.49
2017-02-28T12:49:43.958Z,18.49
2017-02-28T12:50:39.303Z,18.49
2017-02-28T12:51:44.385Z,18.49
2017-02-28T12:52:34.359Z,18.49